Time;durP1;ratioP1;P1;durP2;ratioP2;P2;SDS_P1;SDS_P2;PMS_P1;PMS_P2;Temp;Humidity;BMP_temperature;BMP_pressure;BME280_temperature;BME280_humidity;BME280_pressure;Samples;Min_cycle;Max_cycle;Signal;HPM_P1;HPM_P2
2022/01/29 00:01:53;;;;;;;0.52;0.20;;;;;;;8.65;100.00;102229.09;5039161;28;20390;-52
2022/01/29 00:04:18;;;;;;;2.47;0.40;;;;;;;8.63;100.00;102231.03;5022945;28;20121;-52
2022/01/29 00:06:44;;;;;;;0.10;0.10;;;;;;;8.63;100.00;102233.66;5036720;28;20028;-53
2022/01/29 00:09:14;;;;;;;2.95;0.35;;;;;;;8.59;100.00;102224.31;5033434;28;20043;-52
2022/01/29 00:11:43;;;;;;;2.55;0.40;;;;;;;8.48;100.00;102222.63;5035142;28;20039;-51
2022/01/29 00:14:09;;;;;;;3.17;0.65;;;;;;;8.48;100.00;102218.16;5037057;28;20748;-51
2022/01/29 00:16:35;;;;;;;1.35;0.38;;;;;;;8.47;100.00;102205.09;5037954;28;20033;-52
2022/01/29 00:19:00;;;;;;;2.20;0.30;;;;;;;8.46;100.00;102217.47;5033046;28;20028;-53
2022/01/29 00:21:26;;;;;;;1.08;0.40;;;;;;;8.50;100.00;102208.28;5038398;28;20071;-54
2022/01/29 00:23:51;;;;;;;1.60;0.45;;;;;;;8.49;100.00;102211.06;5038774;28;20139;-56
2022/01/29 00:26:21;;;;;;;0.38;0.20;;;;;;;8.50;100.00;102215.41;5039538;28;20029;-54
2022/01/29 00:28:46;;;;;;;2.70;0.20;;;;;;;8.57;100.00;102220.97;5038531;28;20426;-54
2022/01/29 00:31:11;;;;;;;0.95;0.45;;;;;;;8.61;100.00;102211.81;5041943;28;20415;-52
2022/01/29 00:33:38;;;;;;;0.10;0.10;;;;;;;8.55;100.00;102205.25;5037004;28;20080;-55
2022/01/29 00:36:04;;;;;;;0.57;0.00;;;;;;;8.60;100.00;102210.97;5040642;28;20461;-54
2022/01/29 00:38:30;;;;;;;1.98;0.80;;;;;;;8.56;100.00;102209.56;5040656;28;20038;-56
2022/01/29 00:40:55;;;;;;;0.00;0.00;;;;;;;8.57;100.00;102202.47;5042864;28;20118;-53
2022/01/29 00:43:21;;;;;;;0.75;0.13;;;;;;;8.59;100.00;102203.16;5038399;28;20017;-53
2022/01/29 00:45:46;;;;;;;0.43;0.10;;;;;;;8.53;100.00;102199.25;5046096;28;20033;-55
2022/01/29 00:48:12;;;;;;;0.00;0.00;;;;;;;8.51;100.00;102194.09;5045107;28;20056;-57
2022/01/29 00:50:37;;;;;;;0.20;0.00;;;;;;;8.47;100.00;102183.94;5037366;28;20123;-54
2022/01/29 00:53:02;;;;;;;0.20;0.10;;;;;;;8.32;100.00;102183.44;5045360;28;20067;-50
2022/01/29 00:55:28;;;;;;;1.45;0.43;;;;;;;8.23;100.00;102178.97;5041556;28;20390;-55
2022/01/29 00:57:54;;;;;;;1.98;0.20;;;;;;;8.27;100.00;102183.03;5043443;28;20076;-58
2022/01/29 01:00:19;;;;;;;0.10;0.10;;;;;;;8.36;100.00;102178.72;5041170;28;20081;-56
2022/01/29 01:02:45;;;;;;;0.05;0.05;;;;;;;8.48;100.00;102173.22;5036142;28;20057;-55
2022/01/29 01:05:11;;;;;;;0.40;0.08;;;;;;;8.45;100.00;102173.50;5041131;28;20032;-55
2022/01/29 01:07:37;;;;;;;0.17;0.17;;;;;;;8.40;100.00;102174.88;5037570;28;20042;-54
2022/01/29 01:10:04;;;;;;;0.10;0.00;;;;;;;8.39;100.00;102171.41;5031712;28;20052;-51
2022/01/29 01:12:30;;;;;;;0.17;0.10;;;;;;;8.50;100.00;102167.81;5032815;28;20113;-54
2022/01/29 01:14:55;;;;;;;1.00;0.55;;;;;;;8.60;100.00;102170.47;5039675;28;20124;-54
2022/01/29 01:17:21;;;;;;;0.13;0.10;;;;;;;8.63;100.00;102171.03;5035059;28;20083;-56
2022/01/29 01:19:46;;;;;;;0.10;0.00;;;;;;;8.74;100.00;102175.34;5029697;28;20037;-50
2022/01/29 01:22:14;;;;;;;0.20;0.20;;;;;;;8.72;100.00;102177.28;5032805;28;20041;-52
2022/01/29 01:24:39;;;;;;;0.05;0.05;;;;;;;8.68;100.00;102171.47;5033269;28;20036;-56
2022/01/29 01:27:05;;;;;;;0.00;0.00;;;;;;;8.69;100.00;102162.53;5034209;28;20033;-51
2022/01/29 01:29:30;;;;;;;0.10;0.00;;;;;;;8.77;100.00;102156.56;5033575;28;20029;-57
2022/01/29 01:31:56;;;;;;;0.35;0.00;;;;;;;8.79;100.00;102157.25;5034412;28;20194;-55
2022/01/29 01:34:23;;;;;;;2.55;0.22;;;;;;;8.86;100.00;102165.50;5033369;28;20037;-54
2022/01/29 01:36:54;;;;;;;1.10;0.10;;;;;;;8.85;100.00;102166.44;5031363;28;20704;-51
2022/01/29 01:39:24;;;;;;;2.50;0.17;;;;;;;8.84;100.00;102164.78;5031994;28;20490;-54
2022/01/29 01:42:03;;;;;;;0.47;0.05;;;;;;;8.81;100.00;102160.63;5033953;28;20037;-54
2022/01/29 01:44:43;;;;;;;0.28;0.28;;;;;;;8.81;100.00;102152.69;5031900;28;20053;-56
2022/01/29 01:47:09;;;;;;;0.55;0.10;;;;;;;8.81;100.00;102152.69;5034780;28;20033;-55
2022/01/29 01:49:35;;;;;;;0.10;0.00;;;;;;;8.81;100.00;102149.19;5032547;28;20048;-54
2022/01/29 01:52:01;;;;;;;1.98;0.00;;;;;;;8.81;100.00;102147.38;5033873;28;20505;-57
2022/01/29 01:54:27;;;;;;;0.10;0.08;;;;;;;8.77;100.00;102138.03;5032250;28;20033;-54
2022/01/29 01:56:53;;;;;;;0.57;0.30;;;;;;;8.82;100.00;102135.81;5033520;28;20033;-50
2022/01/29 01:59:18;;;;;;;0.00;0.00;;;;;;;8.89;100.00;102147.53;5037365;28;20044;-55
2022/01/29 02:01:44;;;;;;;0.50;0.20;;;;;;;8.88;100.00;102137.94;5037240;28;20297;-52
2022/01/29 02:04:09;;;;;;;0.20;0.20;;;;;;;8.88;100.00;102142.34;5039248;28;20044;-54
2022/01/29 02:06:35;;;;;;;0.20;0.10;;;;;;;8.93;100.00;102135.69;5037918;28;20690;-55
2022/01/29 02:09:01;;;;;;;0.52;0.10;;;;;;;9.00;100.00;102127.19;5037004;28;20036;-55
2022/01/29 02:11:27;;;;;;;1.45;0.13;;;;;;;9.02;100.00;102135.84;5033754;28;20394;-56
2022/01/29 02:13:56;;;;;;;0.88;0.05;;;;;;;9.03;100.00;102132.19;5038327;28;20049;-57
2022/01/29 02:16:22;;;;;;;1.52;0.00;;;;;;;9.05;100.00;102135.53;5035898;28;20037;-53
2022/01/29 02:18:47;;;;;;;1.85;0.05;;;;;;;9.09;100.00;102126.38;5037666;28;20037;-56
2022/01/29 02:21:15;;;;;;;0.17;0.00;;;;;;;9.11;100.00;102116.44;5037853;28;20367;-55
2022/01/29 02:23:41;;;;;;;0.50;0.00;;;;;;;9.07;100.00;102118.56;5037046;28;20036;-55
2022/01/29 02:26:06;;;;;;;0.10;0.05;;;;;;;9.05;100.00;102117.03;5024290;28;20029;-55
2022/01/29 02:28:32;;;;;;;0.47;0.20;;;;;;;9.07;100.00;102107.13;5036810;28;20029;-49
2022/01/29 02:31:02;;;;;;;0.00;0.00;;;;;;;9.07;100.00;102112.44;5038963;28;20370;-50
2022/01/29 02:33:29;;;;;;;2.72;0.20;;;;;;;9.05;100.00;102109.09;5034084;28;20060;-54
2022/01/29 02:35:56;;;;;;;2.47;0.10;;;;;;;8.97;100.00;102103.66;5035940;28;20091;-52
2022/01/29 02:38:23;;;;;;;0.22;0.22;;;;;;;9.09;100.00;102099.91;5035088;28;20119;-50
2022/01/29 02:40:51;;;;;;;0.00;0.00;;;;;;;9.14;100.00;102098.50;5033896;28;20029;-55
2022/01/29 02:43:18;;;;;;;2.58;0.28;;;;;;;9.14;100.00;102097.66;5023768;28;20033;-52
2022/01/29 02:45:44;;;;;;;0.30;0.20;;;;;;;9.12;100.00;102089.03;5034674;28;20033;-53
2022/01/29 02:48:10;;;;;;;2.00;0.00;;;;;;;9.07;100.00;102081.50;5036504;28;20025;-50
2022/01/29 02:50:36;;;;;;;3.72;0.28;;;;;;;9.01;100.00;102081.22;5037890;28;20473;-52
2022/01/29 02:53:02;;;;;;;0.20;0.10;;;;;;;8.98;100.00;102086.81;5039326;28;20024;-49
2022/01/29 02:55:29;;;;;;;0.80;0.28;;;;;;;9.03;100.00;102081.94;5034259;28;20092;-53
2022/01/29 02:57:54;;;;;;;0.10;0.10;;;;;;;9.06;100.00;102092.22;5040105;28;20033;-53
2022/01/29 03:00:20;;;;;;;2.83;0.08;;;;;;;9.04;100.00;102086.25;5035335;28;20032;-52
2022/01/29 03:02:45;;;;;;;0.00;0.00;;;;;;;8.99;100.00;102083.22;5034159;28;20156;-54
2022/01/29 03:05:11;;;;;;;0.55;0.00;;;;;;;9.01;100.00;102073.28;5033572;28;20021;-56
2022/01/29 03:07:38;;;;;;;4.15;0.73;;;;;;;8.98;100.00;102071.75;5031402;28;20408;-50
2022/01/29 03:10:04;;;;;;;0.60;0.20;;;;;;;9.00;100.00;102069.81;5036698;28;20017;-53
2022/01/29 03:12:30;;;;;;;0.40;0.10;;;;;;;8.99;100.00;102062.88;5036234;28;20052;-57
2022/01/29 03:14:55;;;;;;;3.58;0.52;;;;;;;9.00;100.00;102066.34;5035414;28;20029;-53
2022/01/29 03:17:21;;;;;;;0.55;0.00;;;;;;;9.03;100.00;102052.81;5032079;28;20044;-55
2022/01/29 03:19:46;;;;;;;1.30;0.10;;;;;;;9.05;100.00;102051.69;5016927;28;20037;-54
2022/01/29 03:22:11;;;;;;;0.25;0.25;;;;;;;9.10;100.00;102059.22;5035918;28;20086;-53
2022/01/29 03:24:37;;;;;;;0.22;0.17;;;;;;;9.10;100.00;102053.94;5034861;28;20390;-53
2022/01/29 03:27:02;;;;;;;0.30;0.15;;;;;;;9.05;100.00;102053.53;5031012;28;20406;-53
2022/01/29 03:29:28;;;;;;;0.47;0.10;;;;;;;8.98;100.00;102049.78;5031369;28;20067;-51
2022/01/29 03:31:53;;;;;;;1.65;0.00;;;;;;;8.82;100.00;102045.06;5039363;28;20041;-57
2022/01/29 03:34:19;;;;;;;0.17;0.15;;;;;;;8.85;100.00;102050.91;5038320;28;20094;-59
2022/01/29 03:36:45;;;;;;;1.38;1.00;;;;;;;8.81;100.00;102054.00;5041504;28;20021;-53
2022/01/29 03:39:10;;;;;;;1.33;0.15;;;;;;;8.72;100.00;102059.16;5033008;28;20041;-58
2022/01/29 03:41:37;;;;;;;0.90;0.20;;;;;;;8.83;100.00;102057.31;5033328;28;20138;-53
2022/01/29 03:44:05;;;;;;;3.17;0.20;;;;;;;8.80;100.00;102057.59;5037997;28;20394;-50
2022/01/29 03:46:32;;;;;;;0.10;0.10;;;;;;;8.85;100.00;102058.81;5042789;28;20044;-55
2022/01/29 03:48:58;;;;;;;0.30;0.15;;;;;;;8.85;100.00;102050.91;5034053;28;20465;-50
2022/01/29 03:51:23;;;;;;;0.82;0.17;;;;;;;8.88;100.00;102041.84;5039943;28;20180;-53
2022/01/29 03:53:48;;;;;;;1.65;0.20;;;;;;;8.89;100.00;102056.75;5038650;28;20060;-54
2022/01/29 03:56:14;;;;;;;2.78;0.05;;;;;;;8.91;100.00;102053.00;5038143;28;20033;-57
2022/01/29 03:58:39;;;;;;;0.80;0.10;;;;;;;9.02;100.00;102057.28;5037375;28;20057;-57
2022/01/29 04:01:05;;;;;;;0.60;0.20;;;;;;;9.03;100.00;102055.47;5031998;28;20033;-54
2022/01/29 04:03:30;;;;;;;0.73;0.43;;;;;;;9.08;100.00;102055.88;5041481;28;20362;-53
2022/01/29 04:05:55;;;;;;;0.95;0.05;;;;;;;9.10;100.00;102053.94;5037059;28;20115;-60
2022/01/29 04:08:21;;;;;;;0.13;0.00;;;;;;;9.13;100.00;102053.63;5038347;28;20044;-57
2022/01/29 04:10:50;;;;;;;2.30;0.13;;;;;;;9.11;100.00;102050.28;5039805;28;20025;-52
2022/01/29 04:13:20;;;;;;;0.10;0.00;;;;;;;9.14;100.00;102045.56;5041244;28;20032;-57
2022/01/29 04:15:45;;;;;;;0.28;0.08;;;;;;;9.16;100.00;102046.25;5043910;28;20059;-57
2022/01/29 04:18:11;;;;;;;0.55;0.38;;;;;;;9.13;100.00;102037.75;5039163;28;20382;-52
2022/01/29 04:20:36;;;;;;;0.40;0.00;;;;;;;9.17;100.00;102047.09;5043252;28;20037;-57
2022/01/29 04:23:01;;;;;;;0.00;0.00;;;;;;;9.21;100.00;102055.56;5041480;28;20036;-56
2022/01/29 04:25:27;;;;;;;0.03;0.03;;;;;;;9.23;100.00;102049.16;5043242;28;20480;-56
2022/01/29 04:27:52;;;;;;;0.25;0.10;;;;;;;9.25;100.00;102047.22;5036967;28;20029;-54
2022/01/29 04:30:39;;;;;;;0.40;0.00;;;;;;;9.19;100.00;102039.84;5038019;28;20021;-56
2022/01/29 04:35:42;;;;;;;0.32;0.32;;;;;;;9.25;100.00;102035.78;5047543;28;20048;-59
2022/01/29 04:38:08;;;;;;;1.50;0.45;;;;;;;9.17;100.00;102039.97;5042714;28;20021;-55
2022/01/29 04:40:35;;;;;;;1.65;0.00;;;;;;;9.15;100.00;102043.75;5027300;28;20175;-57
2022/01/29 04:43:04;;;;;;;0.85;0.20;;;;;;;9.13;100.00;102040.41;5049294;28;20035;-52
2022/01/29 04:45:29;;;;;;;1.67;0.55;;;;;;;9.13;100.00;102038.59;5038488;28;20028;-53
2022/01/29 04:47:55;;;;;;;0.05;0.05;;;;;;;9.08;100.00;102034.72;5019157;28;20038;-53
2022/01/29 04:50:20;;;;;;;0.10;0.03;;;;;;;9.02;100.00;102033.47;5043932;28;20132;-57
2022/01/29 04:52:46;;;;;;;0.17;0.13;;;;;;;8.94;100.00;102039.47;5059489;28;20025;-56
2022/01/29 04:55:11;;;;;;;0.70;0.20;;;;;;;8.81;100.00;102036.31;5051541;28;20035;-57
2022/01/29 04:57:39;;;;;;;0.00;0.00;;;;;;;8.83;100.00;102037.00;5049505;28;20035;-55
2022/01/29 05:00:22;;;;;;;0.32;0.00;;;;;;;8.86;100.00;102035.88;5041478;28;20558;-54
2022/01/29 05:02:49;;;;;;;0.90;0.30;;;;;;;8.85;100.00;102035.03;5060413;28;20025;-55
2022/01/29 05:05:15;;;;;;;0.03;0.03;;;;;;;8.90;100.00;102027.50;5052137;28;20036;-53
2022/01/29 05:07:40;;;;;;;0.00;0.00;;;;;;;8.99;100.00;102017.91;5027583;28;20238;-54
2022/01/29 05:10:07;;;;;;;0.00;0.00;;;;;;;8.99;100.00;102025.00;5038467;28;20182;-57
2022/01/29 05:12:48;;;;;;;0.43;0.00;;;;;;;9.05;100.00;102016.47;5044215;28;20025;-56
2022/01/29 05:28:51;;;;;;;2.78;0.10;;;;;;;9.10;100.00;102007.13;5043021;28;20053;-56
2022/01/29 05:31:17;;;;;;;0.17;0.03;;;;;;;9.16;100.00;102005.72;5054969;28;20398;-53
2022/01/29 05:33:42;;;;;;;1.40;0.00;;;;;;;9.16;100.00;102008.34;5038536;28;20281;-50
2022/01/29 05:36:07;;;;;;;0.63;0.10;;;;;;;9.11;100.00;102013.25;5044786;28;20650;-53
2022/01/29 05:38:33;;;;;;;0.32;0.03;;;;;;;9.14;100.00;102003.22;5043319;28;20382;-49
2022/01/29 05:40:59;;;;;;;0.10;0.00;;;;;;;9.18;100.00;102009.06;5055487;28;20064;-50
2022/01/29 05:43:24;;;;;;;0.00;0.00;;;;;;;9.21;100.00;102007.94;5039689;28;20028;-55
2022/01/29 05:45:50;;;;;;;0.20;0.05;;;;;;;9.17;100.00;101995.00;5049196;28;20466;-50
2022/01/29 05:48:16;;;;;;;0.17;0.17;;;;;;;9.13;100.00;102004.19;5046972;28;20119;-50
2022/01/29 05:50:41;;;;;;;0.75;0.03;;;;;;;9.15;100.00;101994.31;5057711;28;20034;-57
2022/01/29 05:53:06;;;;;;;0.20;0.00;;;;;;;9.15;100.00;102001.41;5033258;28;20103;-55
2022/01/29 05:55:32;;;;;;;0.10;0.00;;;;;;;9.11;100.00;101997.38;5048740;28;20517;-49
2022/01/29 05:57:57;;;;;;;0.60;0.00;;;;;;;9.14;100.00;102002.41;5043787;28;20036;-51
2022/01/29 06:00:23;;;;;;;0.32;0.00;;;;;;;9.06;100.00;102002.25;5053409;28;20032;-55
2022/01/29 06:03:08;;;;;;;0.03;0.00;;;;;;;8.94;100.00;101999.78;5046401;28;20087;-56
2022/01/29 06:05:35;;;;;;;0.05;0.00;;;;;;;8.86;100.00;102007.63;5039390;28;20037;-49
2022/01/29 06:08:01;;;;;;;0.22;0.00;;;;;;;8.82;100.00;102008.03;5047356;28;20104;-54
2022/01/29 06:10:27;;;;;;;0.30;0.00;;;;;;;8.77;100.00;102004.97;5020115;28;20029;-51
2022/01/29 06:13:03;;;;;;;0.55;0.15;;;;;;;8.83;100.00;101999.97;5045372;28;20099;-51
2022/01/29 06:15:31;;;;;;;0.00;0.00;;;;;;;8.81;100.00;102011.66;5049755;28;20024;-53
2022/01/29 06:17:57;;;;;;;0.20;0.00;;;;;;;8.86;100.00;102007.63;5045472;28;20060;-53
2022/01/29 06:20:22;;;;;;;1.00;0.10;;;;;;;8.83;100.00;102010.56;5038390;28;20037;-55
2022/01/29 06:22:48;;;;;;;0.38;0.00;;;;;;;8.85;100.00;102018.31;5038625;28;20028;-55
2022/01/29 06:25:14;;;;;;;0.35;0.20;;;;;;;8.86;100.00;102010.25;5050067;28;20028;-53
2022/01/29 06:27:39;;;;;;;0.00;0.00;;;;;;;8.86;100.00;102004.16;5053915;28;20028;-52
2022/01/29 06:30:05;;;;;;;0.08;0.03;;;;;;;8.92;100.00;102004.38;5052274;28;20036;-56
2022/01/29 06:32:31;;;;;;;0.20;0.00;;;;;;;8.97;100.00;102005.78;5034015;28;20118;-57
2022/01/29 06:34:56;;;;;;;3.83;0.13;;;;;;;8.95;100.00;101996.16;5047222;28;20155;-52
2022/01/29 06:37:22;;;;;;;0.00;0.00;;;;;;;8.92;100.00;102008.84;5054742;28;20114;-53
2022/01/29 06:39:47;;;;;;;0.55;0.55;;;;;;;8.86;100.00;102002.31;5045476;28;20037;-51
2022/01/29 06:42:13;;;;;;;0.00;0.00;;;;;;;8.90;100.00;102010.78;5023004;28;20036;-53
2022/01/29 06:44:38;;;;;;;0.22;0.00;;;;;;;8.93;100.00;102005.22;5045814;28;20138;-55
2022/01/29 06:47:04;;;;;;;6.03;0.10;;;;;;;9.01;100.00;102002.72;5040974;28;20055;-57
2022/01/29 06:49:29;;;;;;;0.00;0.00;;;;;;;9.09;100.00;102005.47;5052480;28;20073;-56
2022/01/29 06:51:54;;;;;;;0.20;0.20;;;;;;;9.06;100.00;102000.47;5039988;28;20057;-55
2022/01/29 06:54:20;;;;;;;0.20;0.13;;;;;;;9.07;100.00;101999.47;5040405;28;20040;-49
2022/01/29 06:56:46;;;;;;;0.30;0.00;;;;;;;9.09;100.00;102007.28;5049385;28;20035;-55
2022/01/29 06:59:11;;;;;;;0.30;0.10;;;;;;;9.08;100.00;102002.97;5056910;28;20047;-56
2022/01/29 07:01:37;;;;;;;0.00;0.00;;;;;;;9.04;100.00;101996.31;5053373;28;20443;-54
2022/01/29 07:04:02;;;;;;;0.10;0.10;;;;;;;9.04;100.00;102010.38;5038955;28;20029;-54
2022/01/29 07:06:28;;;;;;;0.10;0.10;;;;;;;9.12;100.00;102004.34;5043821;28;20466;-52
2022/01/29 07:08:53;;;;;;;0.10;0.00;;;;;;;9.15;100.00;101994.31;5040271;28;20040;-50
2022/01/29 07:11:21;;;;;;;0.00;0.00;;;;;;;9.11;100.00;102002.66;5036815;28;20037;-57
2022/01/29 07:13:47;;;;;;;0.22;0.00;;;;;;;9.11;100.00;102013.25;5041539;28;20056;-52
2022/01/29 07:16:12;;;;;;;2.38;0.40;;;;;;;9.12;100.00;101993.75;5043153;28;20068;-51
2022/01/29 07:18:37;;;;;;;0.30;0.00;;;;;;;9.16;100.00;102008.34;5053262;28;20111;-55
2022/01/29 07:21:03;;;;;;;0.85;0.00;;;;;;;9.17;100.00;102012.69;5050477;28;20136;-55
2022/01/29 07:23:28;;;;;;;0.00;0.00;;;;;;;9.19;100.00;102005.44;5026419;28;20141;-57
2022/01/29 07:25:54;;;;;;;2.22;0.10;;;;;;;9.22;100.00;102031.63;5042365;28;20068;-51
2022/01/29 07:28:19;;;;;;;0.75;0.20;;;;;;;9.25;100.00;102001.38;5048680;28;20035;-55
2022/01/29 07:30:45;;;;;;;1.25;0.00;;;;;;;9.32;100.00;102003.31;5053522;28;20028;-52
2022/01/29 07:33:11;;;;;;;0.00;0.00;;;;;;;9.34;100.00;102008.44;5038409;28;20121;-53
2022/01/29 07:35:36;;;;;;;0.60;0.10;;;;;;;9.29;100.00;102002.75;5045509;28;20035;-53
2022/01/29 07:38:01;;;;;;;0.00;0.00;;;;;;;9.28;100.00;101987.84;5031701;28;20036;-51
2022/01/29 07:40:27;;;;;;;0.17;0.00;;;;;;;9.29;100.00;101987.72;5054256;28;20509;-52
2022/01/29 07:42:52;;;;;;;0.00;0.00;;;;;;;9.28;100.00;101985.22;5048677;28;20040;-53
2022/01/29 07:45:17;;;;;;;0.20;0.00;;;;;;;9.30;100.00;101993.84;5045750;28;20121;-54
2022/01/29 07:47:43;;;;;;;1.75;0.00;;;;;;;9.23;100.00;101995.41;5036826;28;20029;-52
2022/01/29 07:50:08;;;;;;;0.00;0.00;;;;;;;9.21;100.00;102014.06;5053669;28;20595;-56
2022/01/29 07:52:34;;;;;;;0.10;0.00;;;;;;;9.22;100.00;102004.31;5040156;28;20481;-49
2022/01/29 07:54:59;;;;;;;0.63;0.00;;;;;;;9.27;100.00;101991.50;5044444;28;20091;-49
2022/01/29 07:57:25;;;;;;;1.00;0.32;;;;;;;9.25;100.00;101993.44;5036628;28;20587;-55
2022/01/29 07:59:50;;;;;;;0.80;0.10;;;;;;;9.21;100.00;102000.00;5055320;28;20385;-54
2022/01/29 08:02:15;;;;;;;1.25;0.00;;;;;;;9.21;100.00;102022.00;5046841;28;20087;-55
2022/01/29 08:04:41;;;;;;;1.20;0.03;;;;;;;9.19;100.00;102010.75;5044194;28;20452;-49
2022/01/29 08:07:06;;;;;;;0.17;0.00;;;;;;;9.17;100.00;102016.16;5046774;28;20571;-50
2022/01/29 08:09:31;;;;;;;0.00;0.00;;;;;;;9.13;100.00;102014.78;5049985;28;20032;-55
2022/01/29 08:11:57;;;;;;;0.13;0.10;;;;;;;9.18;100.00;102014.34;5044279;28;20596;-53
2022/01/29 08:14:22;;;;;;;0.03;0.00;;;;;;;9.18;100.00;102015.19;5046612;28;20528;-51
2022/01/29 08:16:47;;;;;;;1.35;0.38;;;;;;;9.23;100.00;102019.22;5045646;28;20539;-51
2022/01/29 08:19:13;;;;;;;0.47;0.00;;;;;;;9.24;100.00;102012.94;5047018;28;20412;-52
2022/01/29 08:21:38;;;;;;;1.75;0.10;;;;;;;9.18;100.00;102014.34;5049515;28;20371;-53
2022/01/29 08:24:07;;;;;;;0.00;0.00;;;;;;;9.24;100.00;102013.78;5047644;28;20074;-51
2022/01/29 08:26:33;;;;;;;0.47;0.00;;;;;;;9.20;100.00;102001.81;5043965;28;20069;-49
2022/01/29 08:28:59;;;;;;;1.23;0.00;;;;;;;9.17;100.00;102007.41;5045316;28;20489;-53
2022/01/29 08:31:24;;;;;;;0.47;0.25;;;;;;;9.19;100.00;102010.75;5046297;28;20052;-52
2022/01/29 08:33:49;;;;;;;1.27;0.00;;;;;;;9.22;100.00;102005.16;5046056;28;20086;-54
2022/01/29 08:36:15;;;;;;;0.85;0.85;;;;;;;9.24;100.00;102005.84;5043920;28;20123;-53
2022/01/29 08:38:40;;;;;;;0.65;0.20;;;;;;;9.26;100.00;101995.94;5043080;28;20524;-52
2022/01/29 08:41:05;;;;;;;1.50;0.10;;;;;;;9.26;100.00;102018.91;5048107;28;20028;-50
2022/01/29 08:43:32;;;;;;;1.27;0.10;;;;;;;9.29;100.00;102008.91;5038002;28;20041;-50
2022/01/29 08:45:58;;;;;;;0.13;0.00;;;;;;;9.33;100.00;101981.13;5046510;28;20044;-52
2022/01/29 08:48:24;;;;;;;0.20;0.00;;;;;;;9.36;100.00;101980.00;5039050;28;20544;-51
2022/01/29 08:50:50;;;;;;;0.38;0.10;;;;;;;9.40;100.00;101973.47;5041153;28;20037;-53
2022/01/29 08:53:17;;;;;;;0.10;0.10;;;;;;;9.42;100.00;101975.94;5038302;28;20033;-55
2022/01/29 08:55:43;;;;;;;0.22;0.22;;;;;;;9.41;100.00;101974.28;5041354;28;20095;-58
2022/01/29 08:58:08;;;;;;;2.10;0.10;;;;;;;9.43;100.00;101970.50;5042841;28;20035;-57
2022/01/29 09:00:36;;;;;;;0.40;0.00;;;;;;;9.43;100.00;101980.28;5038552;28;20033;-55
2022/01/29 09:03:02;;;;;;;0.35;0.00;;;;;;;9.47;100.00;101989.56;5043998;28;20025;-57
2022/01/29 09:05:28;;;;;;;2.22;0.08;;;;;;;9.50;100.00;101973.38;5030885;28;20088;-54
2022/01/29 09:07:54;;;;;;;0.32;0.00;;;;;;;9.52;100.00;101979.38;5040579;28;20028;-54
2022/01/29 09:10:19;;;;;;;0.75;0.00;;;;;;;9.54;100.00;101972.13;5034724;28;20110;-53
2022/01/29 09:12:45;;;;;;;0.00;0.00;;;;;;;9.53;100.00;101968.66;5035915;28;20348;-51
2022/01/29 09:15:10;;;;;;;0.20;0.10;;;;;;;9.54;100.00;101961.53;5037605;28;20563;-51
2022/01/29 09:17:39;;;;;;;0.08;0.00;;;;;;;9.57;100.00;101959.41;5042084;28;20032;-48
2022/01/29 09:20:06;;;;;;;0.10;0.10;;;;;;;9.58;100.00;101958.44;5044434;28;20076;-48
2022/01/29 09:22:31;;;;;;;0.75;0.00;;;;;;;9.60;100.00;101958.28;5045099;28;20099;-52
2022/01/29 09:24:57;;;;;;;0.88;0.10;;;;;;;9.65;100.00;101955.19;5044252;28;20029;-48
2022/01/29 09:27:22;;;;;;;1.77;0.03;;;;;;;9.75;100.00;101953.31;5019041;28;20037;-50
2022/01/29 09:29:47;;;;;;;0.10;0.00;;;;;;;9.82;100.00;101949.91;5032003;28;20037;-54
2022/01/29 09:32:13;;;;;;;0.00;0.00;;;;;;;9.85;100.00;101955.91;5036467;28;20025;-53
2022/01/29 09:34:38;;;;;;;1.58;0.00;;;;;;;9.91;100.00;101953.47;5031091;28;20031;-52
2022/01/29 09:37:04;;;;;;;0.47;0.00;;;;;;;9.97;100.00;101954.72;5040307;28;20036;-49
2022/01/29 09:39:29;;;;;;;0.38;0.00;;;;;;;9.98;100.00;101959.00;5041633;28;20032;-48
2022/01/29 09:41:55;;;;;;;0.70;0.00;;;;;;;10.08;100.00;101961.59;5040839;28;20052;-54
2022/01/29 09:44:22;;;;;;;1.65;0.00;;;;;;;10.10;100.00;101963.09;5032113;28;20040;-51
2022/01/29 09:46:50;;;;;;;2.00;0.35;;;;;;;10.12;100.00;101949.69;5033981;28;20503;-50
2022/01/29 09:49:17;;;;;;;0.00;0.00;;;;;;;10.25;100.00;101943.03;5038452;28;20029;-50
2022/01/29 09:51:43;;;;;;;0.00;0.00;;;;;;;10.34;100.00;101953.72;5038250;28;20106;-54
2022/01/29 09:54:09;;;;;;;0.50;0.00;;;;;;;10.36;100.00;101943.81;5041692;28;20056;-55
2022/01/29 09:56:34;;;;;;;1.45;0.13;;;;;;;10.37;100.00;101962.19;5035877;28;20037;-54
2022/01/29 09:59:00;;;;;;;3.35;0.30;;;;;;;10.35;100.00;101950.09;5038211;28;20038;-51
2022/01/29 10:01:25;;;;;;;0.73;0.43;;;;;;;10.35;100.00;101934.19;5047696;28;20083;-49
2022/01/29 10:04:02;;;;;;;0.08;0.00;;;;;;;10.39;100.00;101956.75;5029129;28;20029;-53
2022/01/29 10:06:28;;;;;;;0.68;0.00;;;;;;;10.46;100.00;101968.41;5039812;28;20028;-54
2022/01/29 10:08:53;;;;;;;0.00;0.00;;;;;;;10.51;100.00;101970.59;5043873;28;20112;-50
2022/01/29 10:11:21;;;;;;;1.95;0.10;;;;;;;10.54;100.00;101965.81;5045275;28;20037;-55
2022/01/29 10:13:47;;;;;;;1.17;0.00;;;;;;;10.58;100.00;101966.34;5019176;28;20057;-53
2022/01/29 10:16:25;;;;;;;0.40;0.20;;;;;;;10.61;100.00;101980.13;5036767;28;20032;-55
2022/01/29 10:19:05;;;;;;;0.90;0.00;;;;;;;10.65;100.00;101984.13;5040874;28;20032;-48
2022/01/29 10:21:32;;;;;;;0.38;0.10;;;;;;;10.81;100.00;101979.94;5041454;28;20493;-52
2022/01/29 10:24:18;;;;;;;0.20;0.00;;;;;;;10.95;100.00;101984.66;5034250;28;20640;-53
2022/01/29 10:26:48;;;;;;;9.02;1.98;;;;;;;11.07;100.00;101991.34;5038273;28;20025;-53
2022/01/29 10:29:22;;;;;;;1.00;0.00;;;;;;;11.11;100.00;101992.72;5036387;28;20035;-54
2022/01/29 10:31:49;;;;;;;0.40;0.00;;;;;;;11.08;100.00;101995.69;5046108;28;20054;-51
2022/01/29 10:34:26;;;;;;;0.40;0.05;;;;;;;11.10;100.00;101998.19;5038651;28;20048;-54
2022/01/29 10:37:12;;;;;;;0.28;0.20;;;;;;;11.04;100.00;101989.03;5030073;28;20065;-57
2022/01/29 10:39:38;;;;;;;0.35;0.10;;;;;;;10.97;100.00;101990.66;5035482;28;20037;-54
2022/01/29 10:42:24;;;;;;;0.10;0.00;;;;;;;11.00;100.00;101986.88;5044604;28;20102;-53
2022/01/29 10:44:52;;;;;;;0.40;0.25;;;;;;;11.04;100.00;101982.88;5018942;28;20453;-54
2022/01/29 10:47:18;;;;;;;0.38;0.38;;;;;;;11.13;100.00;101977.47;5038519;28;20065;-56
2022/01/29 10:49:52;;;;;;;0.45;0.00;;;;;;;11.25;100.00;101969.22;5035550;28;20202;-57
2022/01/29 10:52:18;;;;;;;0.00;0.00;;;;;;;11.26;100.00;101962.94;5027860;28;20090;-54
2022/01/29 10:54:47;;;;;;;0.38;0.10;;;;;;;11.34;100.00;101958.47;5027960;28;20059;-53
2022/01/29 10:57:17;;;;;;;0.50;0.28;;;;;;;11.46;100.00;101964.34;5026115;28;20037;-53
2022/01/29 10:59:48;;;;;;;0.50;0.10;;;;;;;11.48;100.00;101965.00;5034193;28;20478;-54
2022/01/29 11:02:15;;;;;;;0.20;0.00;;;;;;;11.50;100.00;101973.66;5048705;28;20048;-51
2022/01/29 11:04:42;;;;;;;2.75;0.00;;;;;;;11.52;100.00;101953.06;5040174;28;20070;-57
2022/01/29 11:07:16;;;;;;;2.90;1.02;;;;;;;11.44;100.00;101939.78;5035448;28;20505;-51
2022/01/29 11:09:43;;;;;;;0.55;0.25;;;;;;;11.52;100.00;101921.19;5037914;28;20032;-55
2022/01/29 11:12:10;;;;;;;0.40;0.20;;;;;;;11.60;100.00;101932.84;5039193;28;20036;-54
2022/01/29 11:14:35;;;;;;;0.20;0.00;;;;;;;11.85;100.00;101931.91;5034810;28;20587;-51
2022/01/29 11:17:02;;;;;;;1.45;0.00;;;;;;;12.00;100.00;101909.03;5035747;28;20116;-50
2022/01/29 11:19:28;;;;;;;0.70;0.08;;;;;;;11.98;100.00;101900.38;5042632;28;20032;-53
2022/01/29 11:21:57;;;;;;;3.45;0.00;;;;;;;11.94;100.00;101900.88;5041330;28;20050;-53
2022/01/29 11:24:25;;;;;;;0.38;0.00;;;;;;;11.94;100.00;101908.84;5040812;28;20124;-57
2022/01/29 11:26:51;;;;;;;2.63;0.50;;;;;;;11.90;100.00;101897.72;5039563;28;20025;-55
2022/01/29 11:29:34;;;;;;;1.42;0.00;;;;;;;12.01;100.00;101901.88;5042532;28;20061;-56
2022/01/29 11:32:21;;;;;;;0.52;0.00;;;;;;;12.14;100.00;101910.19;5017080;28;20029;-55
2022/01/29 11:35:06;;;;;;;0.10;0.00;;;;;;;12.29;100.00;101894.38;5035881;28;20466;-51
2022/01/29 11:37:48;;;;;;;1.58;0.00;;;;;;;12.18;100.00;101884.94;5043386;28;20470;-51
2022/01/29 11:40:29;;;;;;;0.10;0.00;;;;;;;12.17;100.00;101898.38;5040710;28;20940;-56